Forside
METAR-TAF:

METAR-TAF

Lufthavne :

Vamdrup

Kolding, Danmark

Breddekreds: 55-26N, længdekreds: 009-20E, højde: 44 m

Aktuelle vejr

Denne rapport blev lavet for 29 minutter siden, kl. 21:20 UTC
Vind 12 kt fra sydøst
Temperatur 8°C
Fugtighed 87%
Tryk 1008 hPa

METAR: EKVD 082120Z AUTO 14012KT //// ///////// 08/06 Q1008

Tid: 23:49 (21:49 UTC)

Vejrudsigter

Denne rapport blev lavet for 12 timer og 52 minutter siden, kl. 08:57 UTC
Foreløbig gælder fra 08 på 09 UTC til 08 på 15 UTC
Vind 10 kt fra vestsydvest
Sigt 10 km eller mere
Spredte skyer i en højde af 2500 ft
Midlertidig
fra 08 på 09 UTC til 08 på 12 UTC
Nogle få skyer i en højde af 2000 ft, Optårnet Cumulus.

TAF: EKVD 080857Z 0809/0815 25010KT 9999 SCT025 TEMPO 0809/0812 FEW020TCU

Vejrobservationer og prognoser fra mere end 4000 lufthavne (METAR og TAF).

De gule og røde prikker repræsenterer de meteorologiske stationer.

Flyt musen over at se navnet på stationen.

Så klik over at se vejr observationer og prognoser.

At skifte det kort: Klik på de grønne knapper med et sort kors for at zoome ind; på den grønne knap med en bindestreg for at zoome ud; eller på de grønne pile for tilstødende kort.


METAR-TAF: